Time;durP1;ratioP1;P1;durP2;ratioP2;P2;SDS_P1;SDS_P2;PMS_P1;PMS_P2;Temp;Humidity;BMP_temperature;BMP_pressure;BME280_temperature;BME280_humidity;BME280_pressure;Samples;Min_cycle;Max_cycle;Signal;HPM_P1;HPM_P2
2024/03/03 00:03:50;;;;;;;2.20;1.30;;;10.80;1.00;;;;;;6248076;22;20061;-82
2024/03/03 00:06:16;;;;;;;1.00;0.90;;;10.80;1.00;;;;;;6244901;22;37637;-82
2024/03/03 00:08:52;;;;;;;1.20;1.07;;;10.80;1.00;;;;;;6245627;22;38017;-82
2024/03/03 00:11:18;;;;;;;1.48;1.08;;;10.90;1.00;;;;;;6243970;22;38703;-81
2024/03/03 00:13:44;;;;;;;2.42;1.17;;;10.80;1.00;;;;;;6259237;22;39596;-83
2024/03/03 00:16:23;;;;;;;1.83;1.10;;;10.80;1.00;;;;;;6242964;22;37269;-81
2024/03/03 00:18:49;;;;;;;2.85;1.20;;;10.90;1.00;;;;;;6269408;22;39295;-81
2024/03/03 00:21:26;;;;;;;1.10;1.00;;;10.80;1.00;;;;;;6241339;23;37169;-81
2024/03/03 00:23:58;;;;;;;1.50;0.98;;;10.90;1.00;;;;;;6243112;22;38700;-82
2024/03/03 00:26:25;;;;;;;1.95;1.20;;;10.90;1.00;;;;;;6238901;22;36238;-82
2024/03/03 00:28:52;;;;;;;1.40;1.20;;;10.90;1.00;;;;;;6240344;23;38118;-82
2024/03/03 00:31:19;;;;;;;1.20;1.10;;;11.00;1.00;;;;;;6239793;23;38301;-81
2024/03/03 00:33:46;;;;;;;1.77;1.15;;;11.00;1.00;;;;;;6241924;23;38729;-81
2024/03/03 00:36:26;;;;;;;2.67;1.03;;;11.00;1.00;;;;;;6239521;23;36580;-81
2024/03/03 00:38:54;;;;;;;1.27;1.00;;;11.10;1.00;;;;;;6240774;22;40317;-81
2024/03/03 00:41:21;;;;;;;2.88;1.10;;;11.10;1.00;;;;;;6241964;23;37856;-81
2024/03/03 00:43:51;;;;;;;1.85;1.20;;;11.10;1.00;;;;;;6243310;23;37810;-81
2024/03/03 00:46:21;;;;;;;1.50;1.10;;;11.10;1.00;;;;;;6243086;23;37336;-82
2024/03/03 00:48:47;;;;;;;1.75;1.00;;;11.10;1.00;;;;;;6270382;22;39176;-81
2024/03/03 00:51:24;;;;;;;1.95;1.20;;;11.10;1.00;;;;;;6244623;22;38511;-81
2024/03/03 00:53:50;;;;;;;2.78;1.50;;;11.20;1.00;;;;;;6273090;22;37932;-81
2024/03/03 00:56:16;;;;;;;1.38;1.20;;;11.20;1.00;;;;;;6231905;22;36600;-81
2024/03/03 00:58:43;;;;;;;2.45;1.17;;;11.20;1.00;;;;;;6243507;23;38769;-81
2024/03/03 01:01:12;;;;;;;1.27;1.10;;;11.20;1.00;;;;;;6240467;22;37262;-82
2024/03/03 01:03:44;;;;;;;2.00;1.10;;;11.30;1.00;;;;;;6243714;23;37582;-82
2024/03/03 01:06:10;;;;;;;1.85;1.10;;;11.30;1.00;;;;;;6267694;22;37361;-82
2024/03/03 01:08:39;;;;;;;2.58;1.20;;;11.30;1.00;;;;;;6245255;23;37569;-83
2024/03/03 01:11:14;;;;;;;1.73;0.95;;;11.40;1.00;;;;;;6242853;23;37544;-82
2024/03/03 01:13:40;;;;;;;2.50;1.05;;;11.40;1.00;;;;;;6235947;22;39698;-81
2024/03/03 01:16:42;;;;;;;1.23;0.90;;;11.40;1.00;;;;;;6246149;22;39008;-82
2024/03/03 01:19:08;;;;;;;2.30;1.42;;;11.30;1.00;;;;;;6243085;23;39886;-80
2024/03/03 01:21:49;;;;;;;1.73;1.30;;;11.20;1.00;;;;;;6245191;23;38626;-81
2024/03/03 01:24:16;;;;;;;2.08;1.20;;;11.10;1.00;;;;;;6244573;22;37080;-80
2024/03/03 01:26:43;;;;;;;2.95;1.67;;;11.00;1.00;;;;;;6271236;22;37405;-81
2024/03/03 01:29:15;;;;;;;3.38;1.40;;;10.80;1.00;;;;;;6241466;23;38782;-81
2024/03/03 01:31:50;;;;;;;1.53;1.37;;;10.60;1.00;;;;;;6246793;22;38986;-81
2024/03/03 01:34:18;;;;;;;2.07;1.57;;;10.40;7.30;;;;;;6237634;22;39565;-81
2024/03/03 01:36:47;;;;;;;1.83;1.57;;;10.30;15.20;;;;;;6245623;22;38849;-81
2024/03/03 01:39:17;;;;;;;3.63;1.80;;;10.30;22.30;;;;;;6236272;22;40057;-81
2024/03/03 01:41:48;;;;;;;1.70;1.60;;;10.30;31.40;;;;;;6228415;23;37735;-82
2024/03/03 01:44:18;;;;;;;2.13;1.47;;;10.20;37.20;;;;;;6226828;22;38351;-82
2024/03/03 01:46:46;;;;;;;3.77;2.00;;;10.20;39.10;;;;;;6212904;23;37109;-81
2024/03/03 01:49:17;;;;;;;1.63;1.50;;;10.10;41.40;;;;;;6227571;22;39575;-82
2024/03/03 01:51:49;;;;;;;2.97;1.40;;;10.10;41.10;;;;;;6239303;23;39180;-82
2024/03/03 01:54:22;;;;;;;3.70;1.90;;;10.00;48.80;;;;;;6224565;22;38484;-82
2024/03/03 01:57:13;;;;;;;4.17;2.20;;;10.00;50.70;;;;;;6256639;22;37953;-82
2024/03/03 01:59:47;;;;;;;3.33;1.60;;;9.80;51.60;;;;;;6236071;22;47721;-82
2024/03/03 02:05:19;;;;;;;3.83;2.00;;;9.70;64.90;;;;;;6288487;22;20026;-82
2024/03/03 02:07:53;;;;;;;3.60;1.97;;;9.60;74.80;;;;;;6301049;22;48703;-82
2024/03/03 02:10:22;;;;;;;3.87;1.97;;;9.60;79.20;;;;;;6287506;22;38660;-82
2024/03/03 02:12:51;;;;;;;4.03;2.17;;;9.40;84.40;;;;;;6303553;22;40018;-82
2024/03/03 02:15:25;;;;;;;3.13;2.10;;;9.50;89.80;;;;;;6303043;22;39577;-81
2024/03/03 02:18:21;;;;;;;3.80;2.50;;;9.50;93.20;;;;;;6292067;22;36848;-81
2024/03/03 02:20:53;;;;;;;3.60;2.47;;;9.50;95.00;;;;;;6286015;22;48428;-82
2024/03/03 02:23:46;;;;;;;5.70;3.03;;;9.50;96.30;;;;;;6284288;22;37856;-82
2024/03/03 02:26:24;;;;;;;6.10;3.75;;;9.50;98.80;;;;;;6294279;22;38719;-81
2024/03/03 02:28:55;;;;;;;6.57;4.87;;;9.50;99.90;;;;;;6300797;22;37527;-81
2024/03/03 02:31:25;;;;;;;7.70;6.63;;;9.50;99.90;;;;;;6282028;22;40147;-82
2024/03/03 02:33:59;;;;;;;10.43;8.00;;;9.50;99.90;;;;;;6319373;22;39994;-82
2024/03/03 02:36:37;;;;;;;10.40;7.40;;;9.50;99.90;;;;;;6302538;22;38096;-82
2024/03/03 02:39:06;;;;;;;9.37;6.90;;;9.50;99.90;;;;;;6292080;22;36958;-82
2024/03/03 02:41:35;;;;;;;8.90;6.20;;;9.40;99.90;;;;;;6308356;22;39459;-82
2024/03/03 02:44:04;;;;;;;9.07;6.67;;;9.30;99.90;;;;;;6293082;22;37724;-81
2024/03/03 02:46:32;;;;;;;9.17;7.27;;;9.30;99.90;;;;;;6292627;22;47533;-82
2024/03/03 02:48:59;;;;;;;8.20;6.97;;;9.30;99.90;;;;;;6299870;22;37494;-81
2024/03/03 02:51:35;;;;;;;8.43;7.23;;;9.30;99.90;;;;;;6298783;22;37899;-82
2024/03/03 02:54:10;;;;;;;9.70;8.53;;;9.20;99.90;;;;;;6288418;22;39616;-82
2024/03/03 02:56:39;;;;;;;10.40;9.30;;;9.20;99.90;;;;;;6278033;22;38464;-82
2024/03/03 02:59:07;;;;;;;13.57;9.87;;;9.20;99.90;;;;;;6285392;22;37919;-83
2024/03/03 03:01:41;;;;;;;14.40;10.30;;;9.20;99.90;;;;;;6301269;22;40419;-82
2024/03/03 03:04:13;;;;;;;12.30;11.00;;;9.20;99.90;;;;;;6294046;22;37636;-82
2024/03/03 03:06:41;;;;;;;14.65;11.88;;;9.20;99.90;;;;;;6313273;22;37493;-82
2024/03/03 03:09:15;;;;;;;13.37;11.93;;;9.20;99.90;;;;;;6307139;22;39101;-82
2024/03/03 03:11:49;;;;;;;14.47;12.60;;;9.30;99.90;;;;;;6298105;22;39269;-82
2024/03/03 03:14:24;;;;;;;16.23;14.23;;;9.30;99.90;;;;;;6287674;22;39129;-82
2024/03/03 03:17:15;;;;;;;16.30;13.30;;;9.30;99.90;;;;;;6282962;22;39534;-81
2024/03/03 03:19:45;;;;;;;16.13;13.00;;;9.30;99.90;;;;;;6275120;22;48571;-81
2024/03/03 03:25:05;;;;;;;17.77;13.57;;;9.40;99.90;;;;;;6296922;22;20099;-81
2024/03/03 03:27:34;;;;;;;14.10;12.47;;;9.40;99.90;;;;;;6300004;22;47776;-81
2024/03/03 03:30:06;;;;;;;15.90;12.63;;;9.40;99.90;;;;;;6302024;22;36543;-81
2024/03/03 03:32:34;;;;;;;14.73;12.65;;;9.40;99.90;;;;;;6303394;22;47446;-82
2024/03/03 03:35:13;;;;;;;16.80;13.53;;;9.40;99.90;;;;;;6305656;22;38588;-83
2024/03/03 03:37:42;;;;;;;16.10;13.00;;;9.40;99.90;;;;;;6288540;22;47264;-82
2024/03/03 03:40:09;;;;;;;16.70;13.23;;;9.40;99.90;;;;;;6291300;22;38334;-82
2024/03/03 03:42:52;;;;;;;16.23;12.57;;;9.40;99.90;;;;;;6285399;22;38789;-82
2024/03/03 03:45:19;;;;;;;15.88;13.00;;;9.40;99.90;;;;;;6305449;22;38827;-81
2024/03/03 03:47:48;;;;;;;14.87;12.50;;;9.40;99.90;;;;;;6307621;22;38510;-82
2024/03/03 03:50:15;;;;;;;16.50;12.50;;;9.40;99.90;;;;;;6292439;22;36886;-82
2024/03/03 03:52:42;;;;;;;15.93;12.87;;;9.40;99.90;;;;;;6225473;22;38833;-81
2024/03/03 03:55:09;;;;;;;18.03;13.90;;;9.40;99.90;;;;;;6212682;22;39021;-81
2024/03/03 03:57:38;;;;;;;13.90;12.07;;;9.40;99.90;;;;;;6204547;22;38248;-82
2024/03/03 04:00:09;;;;;;;15.17;12.10;;;9.40;99.90;;;;;;6217278;22;38291;-81
2024/03/03 04:02:39;;;;;;;18.37;12.53;;;9.40;99.90;;;;;;6205478;22;40301;-80
2024/03/03 04:05:11;;;;;;;13.57;11.80;;;9.40;99.90;;;;;;6301914;22;37755;-81
2024/03/03 04:07:38;;;;;;;15.07;12.30;;;9.30;99.90;;;;;;6304627;22;37191;-82
2024/03/03 04:10:05;;;;;;;16.77;12.27;;;9.30;99.90;;;;;;6301233;22;37373;-82
2024/03/03 04:12:42;;;;;;;14.73;12.17;;;9.30;99.90;;;;;;6295233;22;38146;-82
2024/03/03 04:15:17;;;;;;;18.50;13.03;;;9.20;99.90;;;;;;6303193;22;38622;-82
2024/03/03 04:17:47;;;;;;;16.73;12.97;;;9.20;99.90;;;;;;6304808;22;38285;-82
2024/03/03 04:20:27;;;;;;;20.20;14.10;;;9.10;99.90;;;;;;6302504;22;37819;-81
2024/03/03 04:22:55;;;;;;;16.00;13.03;;;9.10;99.90;;;;;;6304038;22;37723;-82
2024/03/03 04:25:27;;;;;;;19.20;13.13;;;9.00;99.90;;;;;;6303569;22;38897;-82
2024/03/03 04:27:56;;;;;;;17.48;13.48;;;9.00;99.90;;;;;;6293701;22;38336;-82
2024/03/03 04:30:30;;;;;;;17.47;13.00;;;9.10;99.90;;;;;;6292852;22;36522;-81
2024/03/03 04:32:56;;;;;;;16.97;13.77;;;9.10;99.90;;;;;;6328415;22;39502;-83
2024/03/03 04:35:32;;;;;;;14.73;12.13;;;9.10;99.90;;;;;;6304671;22;38718;-82
2024/03/03 04:38:01;;;;;;;16.33;12.30;;;9.10;99.90;;;;;;6303991;22;38420;-83
2024/03/03 04:40:27;;;;;;;17.50;13.50;;;9.10;99.90;;;;;;6303165;22;48576;-81
2024/03/03 04:42:56;;;;;;;17.67;13.50;;;9.10;99.90;;;;;;6304143;22;39978;-82
2024/03/03 04:45:33;;;;;;;18.03;13.43;;;9.10;99.90;;;;;;6302664;22;38678;-82
2024/03/03 04:48:03;;;;;;;17.47;13.63;;;9.10;99.90;;;;;;6305030;22;38070;-82
2024/03/03 04:50:38;;;;;;;17.80;13.87;;;9.10;99.90;;;;;;6300956;22;47712;-81
2024/03/03 04:53:06;;;;;;;19.47;14.40;;;9.20;99.90;;;;;;6303093;22;39289;-83
2024/03/03 04:55:32;;;;;;;19.17;15.23;;;9.20;99.90;;;;;;6304542;22;38708;-83
2024/03/03 04:58:01;;;;;;;20.93;15.70;;;9.20;99.90;;;;;;6306977;22;39575;-81
2024/03/03 05:00:46;;;;;;;19.37;14.83;;;9.20;99.90;;;;;;6304895;22;50035;-82
2024/03/03 05:03:13;;;;;;;21.67;15.70;;;9.20;99.90;;;;;;6303322;22;38948;-82
2024/03/03 05:05:52;;;;;;;21.67;15.53;;;9.20;99.90;;;;;;6305291;22;37282;-82
2024/03/03 05:08:26;;;;;;;19.07;14.80;;;9.20;99.90;;;;;;6291183;22;38539;-82
2024/03/03 05:11:06;;;;;;;19.67;15.27;;;9.20;99.90;;;;;;6284805;22;37177;-82
2024/03/03 05:13:39;;;;;;;20.87;14.87;;;9.20;99.90;;;;;;6302930;22;48516;-82
2024/03/03 05:16:15;;;;;;;20.33;14.80;;;9.20;99.90;;;;;;6282314;22;38604;-82
2024/03/03 05:18:41;;;;;;;19.30;14.83;;;9.20;99.90;;;;;;6295418;22;38680;-82
2024/03/03 05:27:11;;;;;;;19.47;15.17;;;9.10;99.90;;;;;;6262371;22;20010;-81
2024/03/03 05:29:37;;;;;;;20.10;14.70;;;9.10;99.90;;;;;;6308082;22;48524;-82
2024/03/03 05:32:04;;;;;;;20.80;15.53;;;9.10;99.90;;;;;;6268697;22;37986;-81
2024/03/03 05:34:31;;;;;;;20.80;15.33;;;9.10;99.90;;;;;;6240050;22;38981;-82
2024/03/03 05:37:02;;;;;;;21.33;15.20;;;9.10;99.90;;;;;;6274152;22;37275;-82
2024/03/03 05:39:31;;;;;;;20.80;15.60;;;9.10;99.90;;;;;;6270536;22;37265;-82
2024/03/03 05:42:01;;;;;;;21.53;15.67;;;9.10;99.90;;;;;;6273072;22;36802;-82
2024/03/03 05:44:28;;;;;;;20.23;15.03;;;9.10;99.90;;;;;;6273781;22;40826;-82
2024/03/03 05:46:54;;;;;;;21.83;16.07;;;9.10;99.90;;;;;;6273909;22;37680;-81
2024/03/03 05:49:21;;;;;;;20.27;15.47;;;9.10;99.90;;;;;;6275233;22;37756;-83
2024/03/03 05:52:01;;;;;;;22.00;15.67;;;9.10;99.90;;;;;;6233583;22;37677;-82
2024/03/03 05:54:27;;;;;;;21.80;15.27;;;9.00;99.90;;;;;;6259075;22;47761;-81
2024/03/03 05:56:53;;;;;;;22.37;16.23;;;9.00;99.90;;;;;;6244462;23;38006;-81
2024/03/03 05:59:38;;;;;;;20.43;15.03;;;9.00;99.90;;;;;;6229553;23;37012;-81
2024/03/03 06:02:07;;;;;;;21.87;15.10;;;9.00;99.90;;;;;;6240944;23;38959;-81
2024/03/03 06:04:37;;;;;;;24.17;16.60;;;9.10;99.90;;;;;;6244501;22;39080;-83
2024/03/03 06:07:08;;;;;;;22.77;15.40;;;9.10;99.90;;;;;;6238002;22;38767;-82
2024/03/03 06:09:52;;;;;;;22.23;15.83;;;9.10;99.90;;;;;;6237620;23;39825;-81
2024/03/03 06:12:23;;;;;;;22.50;15.67;;;9.20;99.90;;;;;;6238518;22;36293;-80
2024/03/03 06:15:27;;;;;;;21.20;15.73;;;9.20;99.90;;;;;;6208336;23;38259;-82
2024/03/03 06:17:56;;;;;;;21.10;15.37;;;9.10;99.90;;;;;;6230745;22;50226;-82
2024/03/03 06:21:04;;;;;;;23.60;16.13;;;9.10;99.90;;;;;;6241874;22;38314;-82
2024/03/03 06:23:44;;;;;;;22.80;16.40;;;9.10;99.90;;;;;;6197560;23;47987;-82
2024/03/03 06:26:39;;;;;;;22.30;16.13;;;9.10;99.90;;;;;;6224412;23;40066;-83
2024/03/03 06:29:34;;;;;;;20.80;15.33;;;9.00;99.90;;;;;;6211761;23;38619;-82
2024/03/03 06:32:05;;;;;;;22.03;15.47;;;9.00;99.90;;;;;;6220419;23;38028;-82
2024/03/03 06:34:35;;;;;;;21.07;15.00;;;9.00;99.90;;;;;;6226110;22;46759;-83
2024/03/03 06:37:10;;;;;;;23.47;14.67;;;9.10;99.90;;;;;;6261865;22;39789;-82
2024/03/03 06:39:42;;;;;;;21.17;15.53;;;9.10;99.90;;;;;;6216995;23;47562;-81
2024/03/03 06:42:09;;;;;;;21.42;14.45;;;9.10;99.90;;;;;;6225642;23;38981;-83
2024/03/03 06:45:03;;;;;;;22.20;15.40;;;9.10;99.90;;;;;;6242745;22;38739;-83
2024/03/03 06:47:32;;;;;;;21.17;14.77;;;9.10;99.90;;;;;;6240101;22;39123;-82
2024/03/03 06:50:07;;;;;;;21.13;15.07;;;9.00;99.90;;;;;;6234116;23;39112;-82
2024/03/03 06:52:35;;;;;;;21.27;15.23;;;9.00;99.90;;;;;;6216574;23;47716;-83
2024/03/03 06:55:26;;;;;;;23.93;16.50;;;9.00;99.90;;;;;;6240948;22;38133;-82
2024/03/03 06:57:57;;;;;;;22.33;15.63;;;9.00;99.90;;;;;;6234399;22;48789;-82
2024/03/03 07:00:42;;;;;;;21.43;14.07;;;9.00;99.90;;;;;;6213552;23;39447;-83
2024/03/03 07:05:43;;;;;;;23.53;16.10;;;9.00;99.90;;;;;;6240852;22;39288;-81
2024/03/03 07:08:25;;;;;;;20.95;15.13;;;9.10;99.90;;;;;;6254915;22;39746;-82
2024/03/03 07:10:53;;;;;;;22.87;15.27;;;9.00;99.90;;;;;;6244082;23;39376;-82
2024/03/03 07:13:30;;;;;;;22.87;15.93;;;9.00;99.90;;;;;;6240210;22;40917;-81
2024/03/03 07:15:57;;;;;;;22.30;15.43;;;9.00;99.90;;;;;;6234895;23;37772;-82
2024/03/03 07:18:36;;;;;;;22.20;16.03;;;9.00;99.90;;;;;;6219616;22;39225;-82
2024/03/03 07:21:25;;;;;;;23.77;16.57;;;9.10;99.90;;;;;;6222252;22;38970;-82
2024/03/03 07:24:00;;;;;;;24.57;16.43;;;9.10;99.90;;;;;;6236482;22;38473;-82
2024/03/03 07:26:34;;;;;;;22.77;15.87;;;9.10;99.90;;;;;;6253618;22;37861;-82
2024/03/03 07:29:33;;;;;;;22.07;14.73;;;9.10;99.90;;;;;;6224751;22;40301;-83
2024/03/03 07:32:04;;;;;;;22.67;15.40;;;9.20;99.90;;;;;;6204688;22;50261;-81
2024/03/03 07:34:48;;;;;;;22.07;15.97;;;9.10;99.90;;;;;;6231531;22;47709;-81
2024/03/03 07:37:21;;;;;;;23.03;15.40;;;9.20;99.90;;;;;;6238750;22;39111;-82
2024/03/03 07:39:58;;;;;;;25.33;16.25;;;9.20;99.90;;;;;;6230890;22;39099;-83
2024/03/03 07:42:51;;;;;;;21.33;15.50;;;9.20;99.90;;;;;;6219801;22;38142;-82
2024/03/03 07:45:43;;;;;;;23.48;14.77;;;9.20;99.90;;;;;;6214375;22;38386;-82
2024/03/03 07:48:41;;;;;;;24.53;15.83;;;9.30;99.90;;;;;;6260927;22;38735;-82
2024/03/03 07:51:10;;;;;;;21.37;14.50;;;9.40;99.90;;;;;;6259859;22;39127;-82
2024/03/03 07:53:38;;;;;;;21.13;15.27;;;9.50;99.90;;;;;;6232046;22;38808;-81
2024/03/03 07:56:05;;;;;;;20.93;15.13;;;9.60;99.90;;;;;;6264581;22;38583;-82
2024/03/03 07:58:37;;;;;;;23.57;15.67;;;9.70;99.90;;;;;;6240500;22;36941;-82
2024/03/03 08:01:09;;;;;;;20.00;14.43;;;9.80;99.90;;;;;;6238224;22;39253;-82
2024/03/03 08:03:37;;;;;;;19.27;14.68;;;9.80;99.90;;;;;;6262466;22;39562;-81
2024/03/03 08:06:12;;;;;;;20.00;14.80;;;9.90;99.90;;;;;;6243244;22;39577;-81
2024/03/03 08:08:46;;;;;;;18.00;13.20;;;9.90;99.90;;;;;;6281934;22;38929;-81
2024/03/03 08:11:18;;;;;;;17.42;12.68;;;9.90;99.90;;;;;;6274164;22;39451;-82
2024/03/03 08:13:46;;;;;;;;;;;9.80;99.90;;;;;;6295563;22;39890;-82
2024/03/03 08:16:36;;;;;;;16.80;12.67;;;9.90;99.90;;;;;;6285156;22;40390;-82
2024/03/03 08:19:27;;;;;;;16.17;11.70;;;10.00;99.90;;;;;;6288313;22;37523;-82
2024/03/03 08:22:03;;;;;;;14.85;10.77;;;10.10;99.90;;;;;;6302265;22;38781;-82
2024/03/03 08:24:34;;;;;;;15.20;11.67;;;10.30;99.90;;;;;;6238681;22;47239;-81
2024/03/03 08:45:13;;;;;;;9.70;7.85;;;10.50;99.90;;;;;;6248798;22;20020;-80
2024/03/03 08:47:44;;;;;;;8.65;7.07;;;10.60;99.90;;;;;;6301455;22;37052;-81
2024/03/03 08:50:11;;;;;;;9.35;7.78;;;10.80;99.90;;;;;;6296226;22;37596;-80
2024/03/03 08:52:38;;;;;;;7.28;6.00;;;11.00;99.90;;;;;;6285193;22;37873;-80
2024/03/03 08:55:08;;;;;;;9.70;6.35;;;11.00;99.90;;;;;;6297143;22;37600;-80
2024/03/03 08:57:40;;;;;;;6.65;5.95;;;11.00;99.90;;;;;;6300814;22;48492;-80
2024/03/03 09:00:17;;;;;;;6.55;5.20;;;11.00;99.90;;;;;;6285349;22;38667;-80
2024/03/03 09:02:49;;;;;;;7.85;5.40;;;11.00;91.80;;;;;;6247945;22;37780;-80
2024/03/03 09:05:26;;;;;;;8.25;5.68;;;11.00;85.40;;;;;;6290084;22;38658;-80
2024/03/03 09:08:03;;;;;;;6.63;5.18;;;11.20;87.20;;;;;;6273924;22;39413;-80
2024/03/03 09:10:31;;;;;;;7.88;4.80;;;11.30;58.10;;;;;;6288622;22;48205;-80
2024/03/03 09:13:03;;;;;;;6.72;5.22;;;11.40;52.60;;;;;;6297504;22;38936;-79
2024/03/03 09:15:33;;;;;;;7.22;5.60;;;11.50;56.00;;;;;;6287952;22;49396;-79
2024/03/03 09:17:59;;;;;;;6.85;5.72;;;11.50;33.10;;;;;;6292558;22;37506;-80
2024/03/03 09:20:27;;;;;;;7.07;5.60;;;11.50;38.60;;;;;;6281564;22;36703;-80
2024/03/03 09:23:01;;;;;;;6.43;5.80;;;11.40;23.80;;;;;;6280486;22;39366;-81
2024/03/03 09:25:33;;;;;;;5.85;5.25;;;11.40;13.70;;;;;;6268667;22;47790;-81
2024/03/03 09:28:16;;;;;;;5.93;5.22;;;11.60;18.80;;;;;;6299275;22;39521;-81
2024/03/03 09:31:21;;;;;;;5.77;4.97;;;11.60;1.00;;;;;;6256704;22;48766;-81
2024/03/03 09:33:57;;;;;;;9.52;5.45;;;11.70;9.00;;;;;;6222684;22;50145;-80
2024/03/03 09:36:24;;;;;;;9.48;5.68;;;11.70;4.80;;;;;;6273783;22;39683;-80
2024/03/03 09:39:38;;;;;;;7.55;5.53;;;11.70;3.00;;;;;;6288040;22;38865;-81
2024/03/03 09:42:10;;;;;;;7.72;5.53;;;11.70;6.70;;;;;;6236068;22;38512;-80
2024/03/03 09:47:17;;;;;;;6.32;5.28;;;11.70;1.00;;;;;;6289993;22;20024;-80
2024/03/03 09:49:45;;;;;;;6.22;4.85;;;11.70;3.40;;;;;;6285771;22;38773;-80
2024/03/03 09:52:14;;;;;;;7.43;5.30;;;11.80;1.00;;;;;;6271370;22;36491;-80
2024/03/03 09:54:42;;;;;;;7.95;4.65;;;11.70;1.00;;;;;;6306204;22;38510;-80
2024/03/03 09:57:12;;;;;;;7.47;5.35;;;11.60;1.00;;;;;;6282702;22;39987;-79
2024/03/03 09:59:45;;;;;;;7.53;5.25;;;11.70;1.00;;;;;;6289901;22;37259;-80
2024/03/03 10:02:19;;;;;;;6.65;5.60;;;11.60;1.00;;;;;;6296562;22;37003;-79
2024/03/03 10:08:58;;;;;;;10.60;4.88;;;11.70;1.00;;;;;;6292531;22;50665;-80
2024/03/03 10:12:16;;;;;;;9.88;5.32;;;11.70;1.00;;;;;;6310791;22;39580;-82
2024/03/03 10:14:47;;;;;;;8.48;5.72;;;11.70;1.00;;;;;;6247305;22;38509;-80
2024/03/03 10:17:15;;;;;;;7.05;5.38;;;11.80;1.00;;;;;;6280803;22;40058;-80
2024/03/03 10:19:43;;;;;;;7.15;5.55;;;12.10;1.00;;;;;;6261893;22;39016;-80
2024/03/03 10:22:17;;;;;;;7.93;4.70;;;12.00;1.00;;;;;;6288770;22;38665;-79
2024/03/03 10:24:47;;;;;;;7.15;5.32;;;12.00;1.00;;;;;;6280493;22;37408;-80
2024/03/03 10:27:21;;;;;;;5.53;4.63;;;12.00;1.00;;;;;;6284674;22;40267;-79
2024/03/03 10:30:07;;;;;;;5.97;5.05;;;12.00;1.00;;;;;;6292450;22;38052;-79
2024/03/03 10:32:34;;;;;;;8.68;5.38;;;12.10;1.00;;;;;;6282579;22;49239;-79
2024/03/03 10:35:04;;;;;;;6.25;4.70;;;12.20;1.00;;;;;;6296041;22;37413;-80
2024/03/03 10:37:31;;;;;;;7.40;4.90;;;12.30;1.00;;;;;;6289482;22;47721;-79
2024/03/03 10:40:01;;;;;;;5.10;4.60;;;12.50;1.00;;;;;;6290549;22;37494;-80
2024/03/03 10:42:31;;;;;;;7.38;4.72;;;12.60;1.00;;;;;;6288762;22;39747;-79
2024/03/03 10:44:59;;;;;;;6.32;4.93;;;12.50;1.00;;;;;;6287551;22;36421;-79
2024/03/03 10:47:29;;;;;;;6.40;4.85;;;12.60;1.00;;;;;;6294799;22;38771;-80
2024/03/03 10:49:55;;;;;;;6.45;4.63;;;12.60;1.00;;;;;;6294196;22;38178;-79
2024/03/03 10:52:25;;;;;;;7.28;5.10;;;12.50;1.00;;;;;;6304704;22;38007;-79
2024/03/03 10:54:52;;;;;;;6.65;4.60;;;12.70;1.00;;;;;;6295545;22;36428;-79
2024/03/03 10:57:21;;;;;;;5.68;4.68;;;12.70;1.00;;;;;;6296337;22;38677;-79
2024/03/03 10:59:49;;;;;;;5.65;4.65;;;12.80;1.00;;;;;;6287569;22;39112;-79
2024/03/03 11:02:20;;;;;;;6.80;4.20;;;12.90;1.00;;;;;;6289659;22;38964;-79
2024/03/03 11:04:48;;;;;;;6.03;4.80;;;12.90;1.00;;;;;;6293281;22;37787;-78
2024/03/03 11:07:16;;;;;;;5.07;4.28;;;13.10;1.00;;;;;;6288912;22;38185;-80
2024/03/03 11:09:44;;;;;;;8.60;5.00;;;13.20;1.00;;;;;;6290816;22;38913;-79
2024/03/03 11:12:29;;;;;;;10.93;5.40;;;13.30;1.00;;;;;;6272344;22;38629;-80
2024/03/03 11:14:57;;;;;;;7.63;4.75;;;13.50;1.00;;;;;;6281405;22;35984;-79
2024/03/03 11:17:30;;;;;;;4.88;4.18;;;13.70;1.00;;;;;;6271919;22;40046;-80
2024/03/03 11:20:00;;;;;;;6.72;5.00;;;13.80;1.00;;;;;;6271869;22;39047;-81
2024/03/03 11:22:34;;;;;;;6.25;4.90;;;13.90;1.00;;;;;;6271727;22;38315;-82
2024/03/03 11:25:03;;;;;;;8.20;4.90;;;14.10;1.00;;;;;;6274511;22;36390;-83
2024/03/03 11:27:30;;;;;;;5.22;4.35;;;14.30;1.00;;;;;;6272721;22;47053;-80
2024/03/03 11:29:57;;;;;;;4.88;4.03;;;14.40;1.00;;;;;;6270958;22;37606;-83
2024/03/03 11:32:29;;;;;;;5.88;3.78;;;14.40;1.00;;;;;;6271522;22;37284;-84
2024/03/03 11:34:56;;;;;;;4.72;3.92;;;14.30;1.00;;;;;;6272762;22;36269;-84
2024/03/03 11:37:27;;;;;;;6.55;4.20;;;14.30;1.00;;;;;;6271666;22;37521;-83
2024/03/03 11:39:58;;;;;;;6.05;4.25;;;14.40;1.00;;;;;;6273425;22;38614;-84
2024/03/03 11:42:40;;;;;;;4.87;4.20;;;14.50;1.00;;;;;;6270734;22;36761;-85
2024/03/03 11:45:08;;;;;;;6.95;4.00;;;14.30;1.00;;;;;;6271972;22;38036;-85
2024/03/03 11:47:37;;;;;;;7.97;4.45;;;14.20;1.00;;;;;;6274776;22;37772;-82
2024/03/03 11:50:24;;;;;;;5.05;3.72;;;14.00;1.00;;;;;;6273480;22;38631;-81
2024/03/03 11:52:52;;;;;;;6.75;4.22;;;14.10;1.00;;;;;;6278676;22;47262;-82
2024/03/03 11:55:27;;;;;;;6.10;4.25;;;14.10;1.00;;;;;;6280892;22;36988;-82
2024/03/03 11:57:56;;;;;;;5.95;4.45;;;14.40;1.00;;;;;;6275200;22;38813;-81
2024/03/03 12:00:27;;;;;;;5.45;3.97;;;14.50;1.00;;;;;;6276172;22;39067;-83
2024/03/03 12:02:55;;;;;;;8.80;5.60;;;14.50;1.00;;;;;;6271552;22;47387;-82
2024/03/03 12:05:22;;;;;;;5.75;4.22;;;14.30;1.00;;;;;;6267717;22;36187;-82
2024/03/03 12:07:50;;;;;;;6.38;4.22;;;14.20;1.00;;;;;;6276968;22;37937;-83
2024/03/03 12:10:24;;;;;;;6.80;3.20;;;14.50;1.00;;;;;;6273134;22;38188;-84
2024/03/03 12:12:52;;;;;;;4.55;2.80;;;14.80;1.00;;;;;;6268298;22;36715;-82
2024/03/03 12:15:22;;;;;;;3.33;2.50;;;14.90;1.00;;;;;;6264251;22;35946;-84
2024/03/03 12:17:51;;;;;;;4.07;2.10;;;14.90;1.00;;;;;;6271784;22;40631;-82
2024/03/03 12:20:20;;;;;;;4.00;2.05;;;14.90;1.00;;;;;;6272219;22;38502;-85
2024/03/03 12:22:47;;;;;;;3.25;2.50;;;15.00;1.00;;;;;;6270082;22;37985;-85
2024/03/03 12:25:15;;;;;;;2.60;2.00;;;15.00;1.00;;;;;;6259010;22;37170;-85
2024/03/03 12:27:52;;;;;;;3.25;2.13;;;14.90;1.00;;;;;;6272245;22;38063;-84
2024/03/03 12:31:02;;;;;;;2.85;1.60;;;14.60;1.00;;;;;;6264531;22;37524;-82
2024/03/03 12:37:21;;;;;;;7.70;1.92;;;14.30;1.00;;;;;;6228027;22;20025;-79
2024/03/03 12:40:33;;;;;;;2.72;1.83;;;14.20;1.00;;;;;;6301141;22;40483;-79
2024/03/03 12:43:11;;;;;;;2.38;1.60;;;14.30;1.00;;;;;;6245221;22;49484;-79
2024/03/03 12:45:46;;;;;;;2.10;1.70;;;14.30;1.00;;;;;;6298890;22;40785;-79
2024/03/03 12:48:15;;;;;;;3.40;1.75;;;14.40;1.00;;;;;;6250017;22;38282;-79
2024/03/03 12:51:00;;;;;;;3.60;2.00;;;14.40;1.00;;;;;;6270272;22;38286;-80
2024/03/03 12:53:29;;;;;;;4.00;1.90;;;14.50;1.00;;;;;;6267305;22;37686;-80
2024/03/03 12:55:59;;;;;;;3.97;1.52;;;14.40;1.00;;;;;;6275488;22;37247;-80
2024/03/03 12:58:25;;;;;;;3.17;1.70;;;14.50;1.00;;;;;;6270644;22;36537;-80
2024/03/03 13:00:53;;;;;;;2.63;1.85;;;14.70;1.00;;;;;;6271944;22;38476;-80
2024/03/03 13:03:22;;;;;;;4.22;1.48;;;14.60;1.00;;;;;;6259377;22;39027;-81
2024/03/03 13:05:48;;;;;;;3.47;1.45;;;14.80;1.00;;;;;;6290957;22;37864;-83
2024/03/03 13:08:17;;;;;;;5.97;1.50;;;14.90;1.00;;;;;;6268406;22;36539;-84
2024/03/03 13:10:44;;;;;;;2.13;1.50;;;15.00;1.00;;;;;;6265948;22;37872;-84
2024/03/03 13:13:11;;;;;;;5.30;2.00;;;15.10;1.00;;;;;;6266941;22;37733;-84
2024/03/03 13:15:37;;;;;;;3.83;2.00;;;14.90;1.00;;;;;;6282243;22;37942;-84
2024/03/03 13:18:15;;;;;;;3.58;1.65;;;14.70;1.00;;;;;;6271274;22;35970;-83
2024/03/03 13:20:42;;;;;;;3.97;2.53;;;14.70;1.00;;;;;;6273106;22;38172;-83
2024/03/03 13:23:18;;;;;;;3.42;2.00;;;14.80;1.00;;;;;;6273450;22;38844;-81
2024/03/03 13:25:45;;;;;;;3.03;1.90;;;14.90;1.00;;;;;;6270964;22;37268;-82
2024/03/03 13:28:17;;;;;;;3.78;2.00;;;14.90;1.00;;;;;;6275519;22;37384;-83
2024/03/03 13:30:59;;;;;;;3.65;2.10;;;15.00;1.00;;;;;;6268520;22;37914;-83
2024/03/03 13:33:28;;;;;;;2.75;1.85;;;15.40;1.00;;;;;;6268391;22;39626;-85
2024/03/03 13:35:54;;;;;;;3.83;2.15;;;15.30;1.00;;;;;;6266930;22;40246;-84
2024/03/03 13:38:21;;;;;;;6.35;2.00;;;15.30;1.00;;;;;;6266888;22;36853;-84
2024/03/03 13:40:47;;;;;;;3.88;1.83;;;15.40;1.00;;;;;;6266959;22;37901;-85
2024/03/03 13:43:14;;;;;;;2.67;2.00;;;15.60;1.00;;;;;;6269309;22;38844;-84
2024/03/03 13:45:40;;;;;;;3.00;1.80;;;15.70;1.00;;;;;;6268515;22;38657;-87
2024/03/03 13:48:12;;;;;;;2.78;2.00;;;15.70;1.00;;;;;;6271627;22;36332;-86
2024/03/03 13:50:42;;;;;;;3.42;2.40;;;15.80;99.90;;;;;;6274257;22;39086;-85
2024/03/03 13:53:11;;;;;;;2.42;1.77;;;15.80;99.90;;;;;;6273337;22;37571;-84
2024/03/03 13:55:37;;;;;;;3.70;2.00;;;16.00;1.00;;;;;;6270661;22;37010;-84
2024/03/03 13:58:04;;;;;;;2.83;2.03;;;16.10;99.90;;;;;;6271017;22;37658;-85
2024/03/03 14:00:31;;;;;;;2.65;1.98;;;16.00;1.00;;;;;;6269651;22;39904;-85
2024/03/03 14:02:58;;;;;;;2.00;1.77;;;15.90;1.00;;;;;;6271668;22;38932;-85